KCOS

City of Colorado Springs Municipal Airport

Colorado Springs, Colorado, USA
METAR KCOS 250054Z 05014KT 10SM FEW120 SCT160 24/03 A3013 RMK AO2 PK WND 06026/0013 SLP117 T02440028
Observed Flight Rules
May-25 @ 00:54 UTC (9 minutes ago) Visual Flight Rules
Wind Visibility Clouds
50° at 14 knots 10 miles
  • Few at 12,000' AGL
  • Scattered at 16,000' AGL
Temperatures Readings
Current 24°C / 75°F
Dewpoint 3°C / 37°F
Humidity 25%
Altimeter 30.13" Hg
Pressure 1011.7 hPa
Elevation 1856
METAR KCOS 250054Z 05014KT 10SM FEW120 SCT160 24/03 A3013 RMK AO2 PK WND 06026/0013 SLP117 T02440028
Observed Flight Rules
May-25 @ 00:54 UTC
(9 minutes ago)
VFR
Wind Visibility
50° at 14 knots 10 miles
Clouds
  • Few at 12,000' AGL
  • Scattered at 16,000' AGL
Temperature Dewpoint
24°C / 75°F 3°C / 37°F
Humidity Altimeter Pressure
25% 30.13" Hg 1011.7 hPa